createdAt,value
2022-10-14T00:00:41.214Z,13.00
2022-10-14T00:02:14.636Z,13.00
2022-10-14T00:03:48.591Z,13.00
2022-10-14T00:05:25.180Z,13.00
2022-10-14T00:06:58.943Z,13.00
2022-10-14T00:08:32.363Z,13.00
2022-10-14T00:10:08.976Z,13.00
2022-10-14T00:11:42.488Z,13.00
2022-10-14T00:13:14.739Z,13.00
2022-10-14T00:14:49.897Z,12.90
2022-10-14T00:16:27.056Z,12.90
2022-10-14T00:18:00.257Z,13.00
2022-10-14T00:19:33.423Z,12.90
2022-10-14T00:21:07.242Z,12.90
2022-10-14T00:22:42.106Z,12.90
2022-10-14T00:24:18.693Z,12.90
2022-10-14T00:25:52.088Z,12.90
2022-10-14T00:27:25.611Z,12.90
2022-10-14T00:29:01.372Z,13.00
2022-10-14T00:30:39.063Z,12.90
2022-10-14T00:32:12.300Z,12.90
2022-10-14T00:33:46.319Z,12.90
2022-10-14T00:35:19.637Z,12.90
2022-10-14T00:36:52.936Z,12.90
2022-10-14T00:38:27.589Z,12.90
2022-10-14T00:40:00.863Z,12.90
2022-10-14T00:41:36.381Z,12.90
2022-10-14T00:43:14.274Z,12.90
2022-10-14T00:45:03.691Z,12.90
2022-10-14T00:46:42.149Z,12.90
2022-10-14T00:48:17.339Z,12.90
2022-10-14T00:49:52.054Z,12.90
2022-10-14T00:51:26.196Z,12.90
2022-10-14T00:53:00.295Z,12.90
2022-10-14T00:54:38.915Z,12.90
2022-10-14T00:56:16.407Z,12.90
2022-10-14T00:57:49.723Z,12.90
2022-10-14T00:59:23.487Z,12.90
2022-10-14T01:01:04.327Z,12.90
2022-10-14T01:02:43.866Z,12.90
2022-10-14T01:04:20.822Z,12.90
2022-10-14T01:06:20.506Z,12.90
2022-10-14T01:08:10.850Z,12.90
2022-10-14T01:10:06.145Z,12.90
2022-10-14T01:12:16.146Z,12.90
2022-10-14T01:14:05.039Z,12.90
2022-10-14T01:15:54.734Z,12.90
2022-10-14T01:17:51.708Z,12.90
2022-10-14T01:20:11.006Z,12.90
2022-10-14T01:21:56.178Z,12.90
2022-10-14T01:24:30.040Z,12.90
2022-10-14T01:26:49.757Z,12.80
2022-10-14T01:28:35.034Z,12.80
2022-10-14T01:30:17.076Z,12.80
2022-10-14T01:32:01.360Z,12.80
2022-10-14T01:33:41.191Z,12.80
2022-10-14T01:35:25.504Z,12.80
2022-10-14T01:37:06.063Z,12.80
2022-10-14T01:38:47.307Z,12.80
2022-10-14T01:40:29.190Z,12.80
2022-10-14T01:42:08.826Z,12.70
2022-10-14T01:43:47.270Z,12.80
2022-10-14T01:45:31.638Z,12.70
2022-10-14T01:47:07.450Z,12.70
2022-10-14T01:48:46.382Z,12.70
2022-10-14T01:50:25.571Z,12.80
2022-10-14T01:52:06.573Z,12.70
2022-10-14T01:53:48.001Z,12.80
2022-10-14T01:55:27.492Z,12.70
2022-10-14T01:57:08.600Z,12.70
2022-10-14T01:58:44.531Z,12.70
2022-10-14T02:00:17.726Z,12.80
2022-10-14T02:01:55.870Z,12.70
2022-10-14T02:03:45.080Z,12.70
2022-10-14T02:05:25.436Z,12.70
2022-10-14T02:07:07.846Z,12.70
2022-10-14T02:09:01.952Z,12.70
2022-10-14T02:11:00.986Z,12.70
2022-10-14T02:12:46.586Z,12.70
2022-10-14T02:14:37.743Z,12.70
2022-10-14T02:16:25.507Z,12.70
2022-10-14T02:18:12.302Z,12.70
2022-10-14T02:19:53.701Z,12.70
2022-10-14T02:21:34.811Z,12.70
2022-10-14T02:23:33.555Z,12.80
2022-10-14T02:25:13.906Z,12.70
2022-10-14T02:26:50.846Z,12.70
2022-10-14T02:28:30.271Z,12.70
2022-10-14T02:30:07.513Z,12.70
2022-10-14T02:31:43.597Z,12.70
2022-10-14T02:33:22.943Z,12.70
2022-10-14T02:35:00.874Z,12.70
2022-10-14T02:36:36.860Z,12.70
2022-10-14T02:38:11.999Z,12.70
2022-10-14T02:39:53.291Z,12.70
2022-10-14T02:41:33.879Z,12.70
2022-10-14T02:43:09.927Z,12.70
2022-10-14T02:44:54.918Z,12.70
2022-10-14T02:46:29.030Z,12.70
2022-10-14T02:48:02.561Z,12.70
2022-10-14T02:49:37.703Z,12.70
2022-10-14T02:51:11.597Z,12.70
2022-10-14T02:52:44.932Z,12.70
2022-10-14T02:54:18.123Z,12.70
2022-10-14T02:55:50.811Z,12.70
2022-10-14T02:57:24.089Z,12.70
2022-10-14T02:58:57.322Z,12.70
2022-10-14T03:00:30.684Z,12.70
2022-10-14T03:02:04.835Z,12.70
2022-10-14T03:03:38.889Z,12.70
2022-10-14T03:05:13.741Z,12.70
2022-10-14T03:06:47.065Z,12.70
2022-10-14T03:08:20.674Z,12.70
2022-10-14T03:09:56.588Z,12.70
2022-10-14T03:11:30.627Z,12.70
2022-10-14T03:13:10.260Z,12.70
2022-10-14T03:14:48.697Z,12.70
2022-10-14T03:16:23.685Z,12.70
2022-10-14T03:17:58.119Z,12.70
2022-10-14T03:19:40.058Z,12.70
2022-10-14T03:21:15.801Z,12.70
2022-10-14T03:22:48.976Z,12.70
2022-10-14T03:24:23.588Z,12.70
2022-10-14T03:26:14.278Z,12.70
2022-10-14T03:27:51.175Z,12.70
2022-10-14T03:29:27.140Z,12.70
2022-10-14T03:31:08.487Z,12.70
2022-10-14T03:32:54.097Z,12.70
2022-10-14T03:34:47.357Z,12.70
2022-10-14T03:36:27.480Z,12.80
2022-10-14T03:38:03.891Z,12.70
2022-10-14T03:39:40.119Z,12.70
2022-10-14T03:41:14.242Z,12.70
2022-10-14T03:42:47.993Z,12.70
2022-10-14T03:44:22.392Z,12.70
2022-10-14T03:46:15.646Z,12.70
2022-10-14T03:47:49.084Z,12.70
2022-10-14T03:49:22.645Z,12.70
2022-10-14T03:50:56.212Z,12.70
2022-10-14T03:52:31.284Z,12.70
2022-10-14T03:54:12.060Z,12.70
2022-10-14T03:55:45.645Z,12.70
2022-10-14T03:57:19.746Z,12.70
2022-10-14T03:58:58.206Z,12.70
2022-10-14T04:00:32.100Z,12.70
2022-10-14T04:02:23.247Z,12.60
2022-10-14T04:04:02.195Z,12.60
2022-10-14T04:05:37.089Z,12.60
2022-10-14T04:07:16.336Z,12.60
2022-10-14T04:08:58.037Z,12.60
2022-10-14T04:10:36.918Z,12.60
2022-10-14T04:12:10.480Z,12.60
2022-10-14T04:14:04.033Z,12.60
2022-10-14T04:15:39.695Z,12.60
2022-10-14T04:17:21.689Z,12.60
2022-10-14T04:18:55.377Z,12.50
2022-10-14T04:20:29.554Z,12.60
2022-10-14T04:22:03.422Z,12.60
2022-10-14T04:23:39.639Z,12.60
2022-10-14T04:25:22.124Z,12.60
2022-10-14T04:27:00.344Z,12.60
2022-10-14T04:28:53.695Z,12.60
2022-10-14T04:30:39.237Z,12.60
2022-10-14T04:32:15.197Z,12.60
2022-10-14T04:33:48.992Z,12.60
2022-10-14T04:35:28.789Z,12.60
2022-10-14T04:37:03.289Z,12.60
2022-10-14T04:38:56.689Z,12.60
2022-10-14T04:40:32.200Z,12.60
2022-10-14T04:42:06.578Z,12.60
2022-10-14T04:43:40.294Z,12.60
2022-10-14T04:45:26.336Z,12.60
2022-10-14T04:47:06.900Z,12.60
2022-10-14T04:48:40.180Z,12.60
2022-10-14T04:50:14.450Z,12.60
2022-10-14T04:52:07.684Z,12.60
2022-10-14T04:53:47.850Z,12.60
2022-10-14T04:55:42.560Z,12.60
2022-10-14T04:57:17.229Z,12.60
2022-10-14T04:58:54.239Z,12.60
2022-10-14T05:00:32.681Z,12.60
2022-10-14T05:02:10.816Z,12.60
2022-10-14T05:03:51.229Z,12.60
2022-10-14T05:05:25.300Z,12.60
2022-10-14T05:07:02.082Z,12.60
2022-10-14T05:08:35.736Z,12.60
2022-10-14T05:10:10.741Z,12.60
2022-10-14T05:11:49.400Z,12.50
2022-10-14T05:13:27.733Z,12.60
2022-10-14T05:15:09.437Z,12.60
2022-10-14T05:16:50.047Z,12.50
2022-10-14T05:18:30.270Z,12.60
2022-10-14T05:20:09.536Z,12.60
2022-10-14T05:21:44.434Z,12.50
2022-10-14T05:23:21.152Z,12.60
2022-10-14T05:24:55.722Z,12.50
2022-10-14T05:26:29.286Z,12.50
2022-10-14T05:28:06.451Z,12.50
2022-10-14T05:29:39.681Z,12.50
2022-10-14T05:31:13.095Z,12.50
2022-10-14T05:32:55.237Z,12.60
2022-10-14T05:34:28.666Z,12.50
2022-10-14T05:36:03.687Z,12.50
2022-10-14T05:37:39.695Z,12.60
2022-10-14T05:39:14.686Z,12.50
2022-10-14T05:40:54.129Z,12.50
2022-10-14T05:42:26.622Z,12.50
2022-10-14T05:44:04.412Z,12.60
2022-10-14T05:45:38.028Z,12.50
2022-10-14T05:47:11.269Z,12.50
2022-10-14T05:48:46.120Z,12.50
2022-10-14T05:50:19.910Z,12.50
2022-10-14T05:51:53.976Z,12.50
2022-10-14T05:53:29.753Z,12.50
2022-10-14T05:55:06.550Z,12.50
2022-10-14T05:56:40.345Z,12.50
2022-10-14T05:58:14.058Z,12.50
2022-10-14T05:59:51.323Z,12.50
2022-10-14T06:01:24.756Z,12.50
2022-10-14T06:02:59.248Z,12.50
2022-10-14T06:04:33.657Z,12.50
2022-10-14T06:06:14.966Z,12.50
2022-10-14T06:07:48.837Z,12.50
2022-10-14T06:09:23.248Z,12.50
2022-10-14T06:10:57.094Z,12.50
2022-10-14T06:12:30.409Z,12.50
2022-10-14T06:14:03.926Z,12.60
2022-10-14T06:15:38.933Z,12.60
2022-10-14T06:17:12.457Z,12.50
2022-10-14T06:18:45.782Z,12.50
2022-10-14T06:20:19.084Z,12.50
2022-10-14T06:21:52.703Z,12.50
2022-10-14T06:23:26.101Z,12.60
2022-10-14T06:25:04.052Z,12.60
2022-10-14T06:26:38.314Z,12.60
2022-10-14T06:28:11.999Z,12.60
2022-10-14T06:29:45.592Z,12.60
2022-10-14T06:31:20.764Z,12.60
2022-10-14T06:32:54.785Z,12.60
2022-10-14T06:34:28.061Z,12.60
2022-10-14T06:36:03.061Z,12.60
2022-10-14T06:37:36.594Z,12.60
2022-10-14T06:39:11.128Z,12.60
2022-10-14T06:40:44.514Z,12.60
2022-10-14T06:42:17.833Z,12.60
2022-10-14T06:43:51.854Z,12.60
2022-10-14T06:45:25.117Z,12.60
2022-10-14T06:46:59.917Z,12.60
2022-10-14T06:48:33.826Z,12.70
2022-10-14T06:50:08.578Z,12.70
2022-10-14T06:51:42.068Z,12.70
2022-10-14T06:53:15.556Z,12.70
2022-10-14T06:54:48.912Z,12.70
2022-10-14T06:56:22.225Z,12.70
2022-10-14T06:57:56.181Z,12.70
2022-10-14T06:59:29.912Z,12.70
2022-10-14T07:01:04.027Z,12.80
2022-10-14T07:02:40.316Z,12.80
2022-10-14T07:04:13.636Z,12.80
2022-10-14T07:05:46.025Z,12.80
2022-10-14T07:07:19.376Z,12.80
2022-10-14T07:08:52.736Z,12.80
2022-10-14T07:10:25.991Z,12.80
2022-10-14T07:11:59.341Z,12.90
2022-10-14T07:13:34.116Z,12.80
2022-10-14T07:15:09.481Z,12.90
2022-10-14T07:16:44.676Z,12.90
2022-10-14T07:18:19.768Z,12.90
2022-10-14T07:19:53.049Z,12.90
2022-10-14T07:21:26.459Z,12.90
2022-10-14T07:22:59.708Z,12.90
2022-10-14T07:24:33.450Z,12.90
2022-10-14T07:26:06.991Z,12.90
2022-10-14T07:27:40.458Z,13.00
2022-10-14T07:29:13.786Z,13.00
2022-10-14T07:30:47.153Z,13.00
2022-10-14T07:32:20.408Z,13.10
2022-10-14T07:33:55.256Z,13.00
2022-10-14T07:35:28.940Z,13.00
2022-10-14T07:37:02.402Z,13.10
2022-10-14T07:38:35.703Z,13.10
2022-10-14T07:40:11.098Z,13.10
2022-10-14T07:41:44.457Z,13.10
2022-10-14T07:43:17.825Z,13.10
2022-10-14T07:44:53.949Z,13.10
2022-10-14T07:46:32.206Z,13.20
2022-10-14T07:48:05.889Z,13.20
2022-10-14T07:49:40.825Z,13.30
2022-10-14T07:51:14.058Z,13.30
2022-10-14T07:52:47.561Z,13.30
2022-10-14T07:54:25.180Z,13.30
2022-10-14T07:55:59.932Z,13.40
2022-10-14T07:57:33.628Z,13.40
2022-10-14T07:59:07.903Z,13.40
2022-10-14T08:00:41.446Z,13.40
2022-10-14T08:02:14.736Z,13.40
2022-10-14T08:03:49.797Z,13.50
2022-10-14T08:05:39.758Z,13.50
2022-10-14T08:07:14.213Z,13.50
2022-10-14T08:08:49.055Z,13.50
2022-10-14T08:10:22.551Z,13.50
2022-10-14T08:11:55.863Z,13.60
2022-10-14T08:13:29.745Z,13.60
2022-10-14T08:15:03.625Z,13.60
2022-10-14T08:16:39.736Z,13.60
2022-10-14T08:18:13.398Z,13.60
2022-10-14T08:19:46.970Z,13.60
2022-10-14T08:21:21.973Z,13.70
2022-10-14T08:22:56.108Z,13.70
2022-10-14T08:24:29.396Z,13.70
2022-10-14T08:26:03.171Z,13.70
2022-10-14T08:27:36.542Z,13.70
2022-10-14T08:29:12.285Z,13.70
2022-10-14T08:30:45.866Z,13.70
2022-10-14T08:32:19.449Z,13.70
2022-10-14T08:33:53.078Z,13.70
2022-10-14T08:35:26.493Z,13.80
2022-10-14T08:37:02.735Z,13.80
2022-10-14T08:38:36.175Z,13.80
2022-10-14T08:40:17.496Z,13.80
2022-10-14T08:42:17.335Z,13.80
2022-10-14T08:44:02.562Z,13.80
2022-10-14T08:45:43.364Z,13.80
2022-10-14T08:47:23.650Z,13.90
2022-10-14T08:49:17.450Z,13.90
2022-10-14T08:50:57.752Z,13.80
2022-10-14T08:52:41.129Z,13.90
2022-10-14T08:54:26.365Z,13.90
2022-10-14T08:56:02.817Z,13.90
2022-10-14T08:57:50.206Z,13.90
2022-10-14T08:59:26.360Z,14.00
2022-10-14T09:01:09.934Z,13.90
2022-10-14T09:02:50.460Z,14.00
2022-10-14T09:04:23.859Z,14.00
2022-10-14T09:06:01.491Z,14.00
2022-10-14T09:07:38.505Z,14.00
2022-10-14T09:09:23.234Z,14.00
2022-10-14T09:10:56.580Z,14.00
2022-10-14T09:12:35.037Z,14.00
2022-10-14T09:14:14.080Z,14.10
2022-10-14T09:15:56.884Z,14.10
2022-10-14T09:17:38.125Z,14.10
2022-10-14T09:19:23.828Z,14.10
2022-10-14T09:20:59.983Z,14.10
2022-10-14T09:22:33.222Z,14.20
2022-10-14T09:24:16.541Z,14.20
2022-10-14T09:25:58.527Z,14.20
2022-10-14T09:27:33.986Z,14.20
2022-10-14T09:29:22.120Z,14.20
2022-10-14T09:30:55.473Z,14.30
2022-10-14T09:32:34.531Z,14.30
2022-10-14T09:34:10.651Z,14.30
2022-10-14T09:35:44.656Z,14.30
2022-10-14T09:37:27.708Z,14.40
2022-10-14T09:39:03.893Z,14.40
2022-10-14T09:40:44.876Z,14.40
2022-10-14T09:42:23.629Z,14.40
2022-10-14T09:44:22.480Z,14.40
2022-10-14T09:46:01.024Z,14.50
2022-10-14T09:47:45.532Z,14.50
2022-10-14T09:49:23.443Z,14.50
2022-10-14T09:51:00.026Z,14.60
2022-10-14T09:52:33.497Z,14.60
2022-10-14T09:54:07.409Z,14.60
2022-10-14T09:55:51.050Z,14.60
2022-10-14T09:57:26.954Z,14.70
2022-10-14T09:59:00.715Z,14.70
2022-10-14T10:00:38.606Z,14.70
2022-10-14T10:02:24.135Z,14.80
2022-10-14T10:03:58.075Z,14.80
2022-10-14T10:05:34.780Z,14.90
2022-10-14T10:07:30.860Z,14.90
2022-10-14T10:09:04.145Z,14.90
2022-10-14T10:10:37.825Z,14.90
2022-10-14T10:12:30.165Z,14.90
2022-10-14T10:14:19.338Z,15.00
2022-10-14T10:16:00.095Z,15.00
2022-10-14T10:17:36.683Z,15.00
2022-10-14T10:19:28.260Z,15.00
2022-10-14T10:21:06.956Z,15.10
2022-10-14T10:22:40.848Z,15.10
2022-10-14T10:24:25.958Z,15.10
2022-10-14T10:26:25.795Z,15.10
2022-10-14T10:28:01.062Z,15.10
2022-10-14T10:29:35.358Z,15.20
2022-10-14T10:31:25.640Z,15.20
2022-10-14T10:33:16.543Z,15.20
2022-10-14T10:35:15.948Z,15.20
2022-10-14T10:36:57.298Z,15.20
2022-10-14T10:38:38.481Z,15.20
2022-10-14T10:40:32.376Z,15.20
2022-10-14T10:42:19.188Z,15.20
2022-10-14T10:44:20.371Z,15.20
2022-10-14T10:46:21.439Z,15.30
2022-10-14T10:48:02.646Z,15.30
2022-10-14T10:50:14.136Z,15.40
2022-10-14T10:51:56.412Z,15.30
2022-10-14T10:54:01.295Z,15.40
2022-10-14T10:55:42.400Z,15.40
2022-10-14T10:57:40.261Z,15.40
2022-10-14T10:59:48.233Z,15.40
2022-10-14T11:01:40.031Z,15.40
2022-10-14T11:03:44.360Z,15.40
2022-10-14T11:05:40.072Z,15.40
2022-10-14T11:07:42.851Z,15.40
2022-10-14T11:09:44.094Z,15.40
2022-10-14T11:11:44.537Z,15.40
2022-10-14T11:13:32.357Z,15.50
2022-10-14T11:15:26.363Z,15.50
2022-10-14T11:17:10.767Z,15.40
2022-10-14T11:18:51.707Z,15.50
2022-10-14T11:20:38.716Z,15.50
2022-10-14T11:22:32.616Z,15.50
2022-10-14T11:26:01.767Z,15.60
2022-10-14T11:27:52.448Z,15.50
2022-10-14T11:30:14.057Z,15.50
2022-10-14T11:31:58.465Z,15.50
2022-10-14T11:34:11.213Z,15.50
2022-10-14T11:36:02.452Z,15.60
2022-10-14T11:37:51.233Z,15.60
2022-10-14T11:39:40.297Z,15.60
2022-10-14T11:41:37.020Z,15.60
2022-10-14T11:43:24.024Z,15.60
2022-10-14T11:45:31.499Z,15.60
2022-10-14T11:47:15.710Z,15.60
2022-10-14T11:48:53.639Z,15.60
2022-10-14T11:50:37.508Z,15.60
2022-10-14T11:52:21.016Z,15.70
2022-10-14T11:54:02.478Z,15.60
2022-10-14T11:55:43.906Z,15.70
2022-10-14T11:57:29.946Z,15.70
2022-10-14T11:59:40.291Z,15.60
2022-10-14T12:01:45.658Z,15.70
2022-10-14T12:03:39.365Z,15.70
2022-10-14T12:05:23.926Z,15.70
2022-10-14T12:07:09.456Z,15.70
2022-10-14T12:08:51.469Z,15.70
2022-10-14T12:10:33.681Z,15.70
2022-10-14T12:12:12.952Z,15.70
2022-10-14T12:13:52.254Z,15.70
2022-10-14T12:17:19.050Z,15.70
2022-10-14T12:18:57.887Z,15.70
2022-10-14T12:20:44.634Z,15.80
2022-10-14T12:22:23.943Z,15.70
2022-10-14T12:24:05.790Z,15.80
2022-10-14T12:25:51.572Z,15.80
2022-10-14T12:27:28.504Z,15.80
2022-10-14T12:29:05.439Z,15.70
2022-10-14T12:30:43.194Z,15.80
2022-10-14T12:32:25.650Z,15.80
2022-10-14T12:34:39.553Z,15.80
2022-10-14T12:36:33.332Z,15.80
2022-10-14T12:38:06.771Z,15.80
2022-10-14T12:39:43.737Z,15.80
2022-10-14T12:41:40.036Z,15.80
2022-10-14T12:43:23.468Z,15.80
2022-10-14T12:45:01.196Z,15.80
2022-10-14T12:46:45.842Z,15.80
2022-10-14T12:48:23.548Z,15.80
2022-10-14T12:50:02.391Z,15.80
2022-10-14T12:51:35.921Z,15.80
2022-10-14T12:53:23.291Z,15.80
2022-10-14T12:55:00.125Z,15.80
2022-10-14T12:56:56.269Z,15.90
2022-10-14T12:58:36.061Z,15.80
2022-10-14T13:00:32.585Z,15.80
2022-10-14T13:02:23.631Z,15.80
2022-10-14T13:05:46.016Z,15.80
2022-10-14T13:07:46.994Z,15.80
2022-10-14T13:09:35.769Z,15.80
2022-10-14T13:11:14.224Z,15.80
2022-10-14T13:12:47.693Z,15.80
2022-10-14T13:14:25.963Z,15.80
2022-10-14T13:16:00.187Z,15.80
2022-10-14T13:17:48.804Z,15.70
2022-10-14T13:19:45.719Z,15.70
2022-10-14T13:21:53.466Z,15.70
2022-10-14T13:23:38.693Z,15.70
2022-10-14T13:25:19.329Z,15.60
2022-10-14T13:27:08.065Z,15.70
2022-10-14T13:28:52.000Z,15.70
2022-10-14T13:30:38.255Z,15.70
2022-10-14T13:32:31.156Z,15.70
2022-10-14T13:34:18.609Z,15.70
2022-10-14T13:36:06.564Z,15.70
2022-10-14T13:37:47.344Z,15.70
2022-10-14T13:39:20.917Z,15.70
2022-10-14T13:40:59.253Z,15.70
2022-10-14T13:42:38.224Z,15.70
2022-10-14T13:44:13.471Z,15.70
2022-10-14T13:45:52.616Z,15.70
2022-10-14T13:47:27.162Z,15.70
2022-10-14T13:49:05.079Z,15.70
2022-10-14T13:50:39.708Z,15.70
2022-10-14T13:52:22.116Z,15.70
2022-10-14T13:54:00.044Z,15.70
2022-10-14T13:55:33.429Z,15.70
2022-10-14T13:57:43.042Z,15.70
2022-10-14T13:59:43.212Z,15.70
2022-10-14T14:01:19.206Z,15.70
2022-10-14T14:02:56.773Z,15.70
2022-10-14T14:04:37.890Z,15.70
2022-10-14T14:06:15.258Z,15.70
2022-10-14T14:09:51.752Z,15.70
2022-10-14T14:11:29.871Z,15.60
2022-10-14T14:13:06.144Z,15.70
2022-10-14T14:14:42.808Z,15.60
2022-10-14T14:16:22.037Z,15.60
2022-10-14T14:17:55.635Z,15.60
2022-10-14T14:19:32.872Z,15.60
2022-10-14T14:21:06.785Z,15.60
2022-10-14T14:22:44.382Z,15.60
2022-10-14T14:24:24.032Z,15.60
2022-10-14T14:26:18.276Z,15.60
2022-10-14T14:27:55.480Z,15.70
2022-10-14T14:29:33.830Z,15.60
2022-10-14T14:31:08.920Z,15.60
2022-10-14T14:32:42.293Z,15.60
2022-10-14T14:34:19.055Z,15.60
2022-10-14T14:35:58.046Z,15.60
2022-10-14T14:37:53.365Z,15.60
2022-10-14T14:39:30.975Z,15.60
2022-10-14T14:41:19.026Z,15.60
2022-10-14T14:42:57.165Z,15.60
2022-10-14T14:44:33.970Z,15.60
2022-10-14T14:46:08.472Z,15.60
2022-10-14T14:47:43.243Z,15.50
2022-10-14T14:49:23.240Z,15.60
2022-10-14T14:50:58.130Z,15.60
2022-10-14T14:52:32.187Z,15.50
2022-10-14T14:54:07.373Z,15.50
2022-10-14T14:55:47.164Z,15.50
2022-10-14T14:57:24.068Z,15.50
2022-10-14T14:59:08.037Z,15.50
2022-10-14T15:00:46.050Z,15.50
2022-10-14T15:02:22.070Z,15.50
2022-10-14T15:04:13.435Z,15.50
2022-10-14T15:05:55.509Z,15.50
2022-10-14T15:07:32.324Z,15.50
2022-10-14T15:09:14.096Z,15.50
2022-10-14T15:10:51.012Z,15.50
2022-10-14T15:12:30.626Z,15.50
2022-10-14T15:14:05.055Z,15.50
2022-10-14T15:15:39.556Z,15.50
2022-10-14T15:17:29.130Z,15.50
2022-10-14T15:19:35.533Z,15.50
2022-10-14T15:21:20.062Z,15.50
2022-10-14T15:22:53.634Z,15.50
2022-10-14T15:24:29.287Z,15.50
2022-10-14T15:26:02.842Z,15.50
2022-10-14T15:27:50.918Z,15.50
2022-10-14T15:29:24.880Z,15.50
2022-10-14T15:31:03.022Z,15.50
2022-10-14T15:32:39.224Z,15.50
2022-10-14T15:34:22.904Z,15.50
2022-10-14T15:35:59.269Z,15.40
2022-10-14T15:37:32.624Z,15.50
2022-10-14T15:39:06.086Z,15.40
2022-10-14T15:40:40.734Z,15.40
2022-10-14T15:42:14.408Z,15.40
2022-10-14T15:43:49.212Z,15.40
2022-10-14T15:45:23.019Z,15.40
2022-10-14T15:47:15.730Z,15.30
2022-10-14T15:48:55.180Z,15.40
2022-10-14T15:50:29.331Z,15.40
2022-10-14T15:52:02.545Z,15.40
2022-10-14T15:53:36.450Z,15.30
2022-10-14T15:55:19.511Z,15.30
2022-10-14T15:56:53.041Z,15.30
2022-10-14T15:58:26.469Z,15.30
2022-10-14T16:00:01.424Z,15.30
2022-10-14T16:01:58.806Z,15.30
2022-10-14T16:03:37.171Z,15.30
2022-10-14T16:05:20.752Z,15.20
2022-10-14T16:06:57.514Z,15.20
2022-10-14T16:08:30.771Z,15.20
2022-10-14T16:10:04.710Z,15.20
2022-10-14T16:11:38.013Z,15.20
2022-10-14T16:13:13.336Z,15.10
2022-10-14T16:14:46.907Z,15.20
2022-10-14T16:16:26.572Z,15.20
2022-10-14T16:18:01.722Z,15.20
2022-10-14T16:19:35.269Z,15.20
2022-10-14T16:21:17.262Z,15.10
2022-10-14T16:22:50.860Z,15.20
2022-10-14T16:24:26.481Z,15.20
2022-10-14T16:26:00.214Z,15.20
2022-10-14T16:27:33.480Z,15.20
2022-10-14T16:29:06.697Z,15.20
2022-10-14T16:30:43.969Z,15.20
2022-10-14T16:32:17.407Z,15.20
2022-10-14T16:33:54.577Z,15.20
2022-10-14T16:35:29.014Z,15.20
2022-10-14T16:37:02.593Z,15.20
2022-10-14T16:38:35.923Z,15.20
2022-10-14T16:40:12.075Z,15.20
2022-10-14T16:41:45.863Z,15.20
2022-10-14T16:43:20.205Z,15.10
2022-10-14T16:44:52.541Z,15.10
2022-10-14T16:46:46.690Z,15.10
2022-10-14T16:48:20.334Z,15.10
2022-10-14T16:49:56.956Z,15.10
2022-10-14T16:51:30.238Z,15.10
2022-10-14T16:53:21.368Z,15.10
2022-10-14T16:54:56.301Z,15.10
2022-10-14T16:56:47.436Z,15.10
2022-10-14T16:58:21.121Z,15.10
2022-10-14T16:59:54.393Z,15.10
2022-10-14T17:01:28.416Z,15.00
2022-10-14T17:03:02.256Z,15.00
2022-10-14T17:04:35.546Z,15.10
2022-10-14T17:06:10.337Z,15.00
2022-10-14T17:07:44.615Z,15.00
2022-10-14T17:09:19.570Z,15.00
2022-10-14T17:10:57.468Z,15.00
2022-10-14T17:12:31.029Z,15.00
2022-10-14T17:14:04.921Z,15.00
2022-10-14T17:15:38.371Z,15.00
2022-10-14T17:17:12.385Z,15.00
2022-10-14T17:18:45.673Z,15.00
2022-10-14T17:20:21.865Z,15.00
2022-10-14T17:21:56.753Z,15.00
2022-10-14T17:23:31.909Z,14.90
2022-10-14T17:25:08.377Z,14.90
2022-10-14T17:26:41.937Z,14.90
2022-10-14T17:28:14.187Z,14.90
2022-10-14T17:29:47.884Z,14.90
2022-10-14T17:31:22.614Z,14.80
2022-10-14T17:32:55.868Z,14.90
2022-10-14T17:34:29.136Z,14.90
2022-10-14T17:36:06.391Z,14.80
2022-10-14T17:37:42.385Z,14.80
2022-10-14T17:39:22.925Z,14.80
2022-10-14T17:41:03.396Z,14.90
2022-10-14T17:42:38.261Z,14.80
2022-10-14T17:44:11.621Z,14.80
2022-10-14T17:45:44.887Z,14.80
2022-10-14T17:47:19.675Z,14.70
2022-10-14T17:48:56.141Z,14.70
2022-10-14T17:50:30.030Z,14.70
2022-10-14T17:52:04.503Z,14.70
2022-10-14T17:53:40.719Z,14.60
2022-10-14T17:55:14.460Z,14.70
2022-10-14T17:56:47.797Z,14.70
2022-10-14T17:58:21.708Z,14.60
2022-10-14T17:59:55.155Z,14.60
2022-10-14T18:01:37.252Z,14.60
2022-10-14T18:03:17.186Z,14.60
2022-10-14T18:04:51.269Z,14.60
2022-10-14T18:06:27.204Z,14.60
2022-10-14T18:08:00.905Z,14.50
2022-10-14T18:09:36.215Z,14.50
2022-10-14T18:11:11.371Z,14.50
2022-10-14T18:12:44.817Z,14.50
2022-10-14T18:14:18.217Z,14.50
2022-10-14T18:15:52.253Z,14.40
2022-10-14T18:17:25.915Z,14.40
2022-10-14T18:18:59.370Z,14.40
2022-10-14T18:20:34.866Z,14.40
2022-10-14T18:22:08.473Z,14.40
2022-10-14T18:23:42.608Z,14.40
2022-10-14T18:25:17.324Z,14.30
2022-10-14T18:26:51.857Z,14.30
2022-10-14T18:28:25.310Z,14.30
2022-10-14T18:29:58.781Z,14.30
2022-10-14T18:31:33.287Z,14.20
2022-10-14T18:33:06.518Z,14.20
2022-10-14T18:34:39.840Z,14.20
2022-10-14T18:36:16.637Z,14.20
2022-10-14T18:37:50.368Z,14.20
2022-10-14T18:39:24.030Z,14.20
2022-10-14T18:41:05.330Z,14.10
2022-10-14T18:42:38.645Z,14.20
2022-10-14T18:44:12.194Z,14.10
2022-10-14T18:45:45.407Z,14.10
2022-10-14T18:47:19.191Z,14.10
2022-10-14T18:48:55.197Z,14.00
2022-10-14T18:50:28.725Z,14.00
2022-10-14T18:52:02.005Z,14.00
2022-10-14T18:53:36.564Z,14.00
2022-10-14T18:55:10.666Z,14.00
2022-10-14T18:56:47.400Z,14.00
2022-10-14T18:58:21.275Z,14.00
2022-10-14T18:59:54.738Z,13.90
2022-10-14T19:01:28.128Z,13.90
2022-10-14T19:03:01.878Z,13.90
2022-10-14T19:04:35.352Z,13.90
2022-10-14T19:06:10.899Z,13.90
2022-10-14T19:07:44.312Z,13.90
2022-10-14T19:09:21.321Z,13.90
2022-10-14T19:11:02.490Z,13.80
2022-10-14T19:12:43.042Z,13.80
2022-10-14T19:14:16.297Z,13.80
2022-10-14T19:15:53.846Z,13.80
2022-10-14T19:17:27.431Z,13.80
2022-10-14T19:19:04.404Z,13.80
2022-10-14T19:20:38.259Z,13.80
2022-10-14T19:22:11.691Z,13.80
2022-10-14T19:23:45.577Z,13.80
2022-10-14T19:25:20.426Z,13.80
2022-10-14T19:26:55.071Z,13.80
2022-10-14T19:28:29.712Z,13.70
2022-10-14T19:30:03.043Z,13.70
2022-10-14T19:31:37.901Z,13.80
2022-10-14T19:33:10.249Z,13.70
2022-10-14T19:34:47.213Z,13.70
2022-10-14T19:36:22.549Z,13.80
2022-10-14T19:37:55.846Z,13.70
2022-10-14T19:39:29.348Z,13.70
2022-10-14T19:41:04.643Z,13.70
2022-10-14T19:42:38.003Z,13.70
2022-10-14T19:44:14.363Z,13.70
2022-10-14T19:45:50.239Z,13.60
2022-10-14T19:47:24.634Z,13.70
2022-10-14T19:49:02.430Z,13.60
2022-10-14T19:50:36.285Z,13.60
2022-10-14T19:52:10.288Z,13.60
2022-10-14T19:53:45.335Z,13.60
2022-10-14T19:55:18.988Z,13.60
2022-10-14T19:56:52.872Z,13.60
2022-10-14T19:58:26.376Z,13.60
2022-10-14T20:00:01.192Z,13.50
2022-10-14T20:01:35.673Z,13.50
2022-10-14T20:03:09.702Z,13.50
2022-10-14T20:04:43.791Z,13.50
2022-10-14T20:06:17.803Z,13.50
2022-10-14T20:07:52.722Z,13.50
2022-10-14T20:09:26.101Z,13.60
2022-10-14T20:11:02.902Z,13.50
2022-10-14T20:12:36.584Z,13.50
2022-10-14T20:14:10.222Z,13.50
2022-10-14T20:15:44.958Z,13.50
2022-10-14T20:18:53.024Z,13.50
2022-10-14T20:20:26.330Z,13.50
2022-10-14T20:22:01.456Z,13.50
2022-10-14T20:23:36.547Z,13.50
2022-10-14T20:25:10.801Z,13.50
2022-10-14T20:26:44.225Z,13.40
2022-10-14T20:28:19.500Z,13.50
2022-10-14T20:29:52.869Z,13.40
2022-10-14T20:31:27.525Z,13.40
2022-10-14T20:33:00.901Z,13.40
2022-10-14T20:34:35.054Z,13.40
2022-10-14T20:36:14.491Z,13.40
2022-10-14T20:37:47.744Z,13.40
2022-10-14T20:39:21.697Z,13.40
2022-10-14T20:40:56.389Z,13.30
2022-10-14T20:42:29.662Z,13.40
2022-10-14T20:44:02.944Z,13.40
2022-10-14T20:45:36.609Z,13.30
2022-10-14T20:47:11.626Z,13.30
2022-10-14T20:48:45.154Z,13.20
2022-10-14T20:50:18.940Z,13.30
2022-10-14T20:51:52.274Z,13.30
2022-10-14T20:53:28.614Z,13.20
2022-10-14T20:55:02.080Z,13.20
2022-10-14T20:56:37.193Z,13.20
2022-10-14T20:58:10.806Z,13.20
2022-10-14T20:59:44.415Z,13.20
2022-10-14T21:01:18.914Z,13.20
2022-10-14T21:02:53.593Z,13.20
2022-10-14T21:04:26.881Z,13.20
2022-10-14T21:06:04.068Z,13.20
2022-10-14T21:07:37.336Z,13.20
2022-10-14T21:09:10.829Z,13.10
2022-10-14T21:10:43.144Z,13.10
2022-10-14T21:12:16.892Z,13.10
2022-10-14T21:13:53.557Z,13.10
2022-10-14T21:15:27.461Z,13.10
2022-10-14T21:17:00.869Z,13.10
2022-10-14T21:18:35.752Z,13.10
2022-10-14T21:20:10.857Z,13.10
2022-10-14T21:21:46.221Z,13.10